createdAt,value
2022-07-26T00:00:30.156Z,25.9
2022-07-26T00:03:37.164Z,25.9
2022-07-26T00:05:43.559Z,25.9
2022-07-26T00:06:37.425Z,25.9
2022-07-26T00:07:58.926Z,25.9
2022-07-26T00:09:37.586Z,25.2
2022-07-26T00:12:38.033Z,25.2
2022-07-26T00:18:30.138Z,25.2
2022-07-26T00:21:41.408Z,25.2
2022-07-26T00:24:38.214Z,25.2
2022-07-26T00:25:30.367Z,25.2
2022-07-26T00:27:38.071Z,25.2
2022-07-26T00:29:24.565Z,25.2
2022-07-26T00:32:26.307Z,25.2
2022-07-26T01:06:50.051Z,24.2
2022-07-26T01:19:42.805Z,24.2
2022-07-26T01:21:38.845Z,24.2
2022-07-26T01:23:17.844Z,24.5
2022-07-26T01:24:36.795Z,24.5
2022-07-26T01:27:17.373Z,24.7
2022-07-26T01:30:32.215Z,24.7
2022-07-26T01:33:38.846Z,24.9
2022-07-26T01:36:11.028Z,24.9
2022-07-26T01:38:07.510Z,25
2022-07-26T01:39:37.948Z,25
2022-07-26T01:42:21.899Z,25.1
2022-07-26T01:45:38.951Z,25.1
2022-07-26T01:48:37.834Z,25.2
2022-07-26T01:51:42.342Z,25.2
2022-07-26T01:54:37.296Z,25.2
2022-07-26T01:56:21.281Z,25.2
2022-07-26T01:57:16.106Z,25.2
2022-07-26T02:03:37.310Z,25.2
2022-07-26T02:05:31.760Z,25.2
2022-07-26T02:06:37.890Z,25.2
2022-07-26T02:07:19.296Z,25.2
2022-07-26T02:09:14.399Z,25.4
2022-07-26T02:11:27.070Z,25.4
2022-07-26T02:12:36.870Z,25.4
2022-07-26T02:13:34.753Z,25.4
2022-07-26T02:15:37.682Z,25.4
2022-07-26T02:18:33.395Z,25.4
2022-07-26T02:21:13.505Z,25.4
2022-07-26T02:24:37.256Z,25.4
2022-07-26T02:26:05.393Z,25.4
2022-07-26T02:27:36.942Z,25.4
2022-07-26T02:29:09.958Z,25.4
2022-07-26T02:31:34.536Z,25.4
2022-07-26T02:33:37.324Z,25.4
2022-07-26T02:36:12.759Z,25.4
2022-07-26T02:38:26.995Z,25.4
2022-07-26T02:39:41.997Z,25.4
2022-07-26T02:42:37.397Z,25.4
2022-07-26T02:43:39.321Z,25.4
2022-07-26T02:45:38.052Z,25.4
2022-07-26T02:48:38.094Z,25.4
2022-07-26T02:50:08.551Z,25.4
2022-07-26T02:51:38.198Z,25.4
2022-07-26T02:53:58.697Z,25.4
2022-07-26T02:54:36.855Z,25.4
2022-07-26T02:56:00.073Z,25.4
2022-07-26T02:57:47.461Z,25.4
2022-07-26T03:00:30.178Z,25.4
2022-07-26T03:03:51.474Z,25.4
2022-07-26T03:05:19.070Z,25.4
2022-07-26T03:06:37.587Z,25.4
2022-07-26T03:07:27.332Z,25.4
2022-07-26T03:08:28.581Z,25.4
2022-07-26T03:09:38.109Z,25.4
2022-07-26T03:12:42.980Z,25.4
2022-07-26T03:15:37.486Z,25.4
2022-07-26T03:17:32.685Z,25.2
2022-07-26T03:18:37.179Z,25.2
2022-07-26T03:20:25.603Z,25.2
2022-07-26T03:21:38.501Z,25.2
2022-07-26T03:23:12.226Z,25.2
2022-07-26T03:24:37.070Z,25.2
2022-07-26T03:27:37.395Z,25.2
2022-07-26T03:30:55.181Z,25.2
2022-07-26T03:33:36.873Z,25.1
2022-07-26T03:36:37.168Z,25.1
2022-07-26T03:38:08.627Z,25
2022-07-26T03:39:36.919Z,25
2022-07-26T03:42:37.381Z,24.9
2022-07-26T03:45:38.219Z,24.9
2022-07-26T03:46:12.477Z,24.9
2022-07-26T03:48:37.773Z,24.7
2022-07-26T03:50:46.093Z,24.7
2022-07-26T03:51:37.214Z,24.7
2022-07-26T03:54:36.929Z,24.5
2022-07-26T03:56:29.251Z,24.5
2022-07-26T03:57:38.453Z,24.4
2022-07-26T03:59:22.902Z,24.4
2022-07-26T04:00:16.675Z,24.4
2022-07-26T04:03:47.672Z,24.4
2022-07-26T04:06:37.841Z,24.4
2022-07-26T04:09:37.361Z,24.3
2022-07-26T04:12:37.237Z,24.2
2022-07-26T04:15:32.019Z,24.2
2022-07-26T04:18:07.973Z,24
2022-07-26T04:21:38.906Z,24
2022-07-26T04:23:21.579Z,24
2022-07-26T04:24:37.096Z,24
2022-07-26T04:27:14.902Z,24
2022-07-26T04:32:39.921Z,24
2022-07-26T04:33:37.480Z,24
2022-07-26T04:36:37.081Z,24
2022-07-26T04:38:36.965Z,24.1
2022-07-26T04:39:37.585Z,24.1
2022-07-26T04:42:37.162Z,24.2
2022-07-26T04:44:51.929Z,24.2
2022-07-26T04:45:38.992Z,24.2
2022-07-26T04:47:37.880Z,24.2
2022-07-26T04:48:37.505Z,24.3
2022-07-26T04:50:19.804Z,24.3
2022-07-26T04:51:36.851Z,24.3
2022-07-26T04:54:07.876Z,24.4
2022-07-26T04:54:36.569Z,24.4
2022-07-26T04:57:38.021Z,24.5
2022-07-26T04:59:08.423Z,24.5
2022-07-26T05:03:38.380Z,24.5
2022-07-26T05:05:12.321Z,24.5
2022-07-26T05:06:42.846Z,24.6
2022-07-26T05:09:49.726Z,24.6
2022-07-26T05:12:37.388Z,24.7
2022-07-26T05:15:45.103Z,24.7
2022-07-26T05:16:46.282Z,24.8
2022-07-26T05:18:49.939Z,24.8
2022-07-26T05:21:37.739Z,24.9
2022-07-26T05:22:44.787Z,24.9
2022-07-26T05:24:37.076Z,24.9
2022-07-26T05:27:02.577Z,25
2022-07-26T05:27:37.327Z,25
2022-07-26T05:28:50.128Z,25
2022-07-26T05:33:37.460Z,25.2
2022-07-26T05:36:36.862Z,25.2
2022-07-26T05:37:43.937Z,25.2
2022-07-26T05:39:04.877Z,25.2
2022-07-26T05:42:37.671Z,25.4
2022-07-26T05:45:38.947Z,25.4
2022-07-26T05:48:19.843Z,25.4
2022-07-26T05:51:37.357Z,25.4
2022-07-26T05:54:37.257Z,25.7
2022-07-26T05:57:11.052Z,25.7
2022-07-26T05:59:23.902Z,25.8
2022-07-26T06:03:37.782Z,25.9
2022-07-26T06:07:16.395Z,25.9
2022-07-26T06:08:11.195Z,25.9
2022-07-26T06:12:38.120Z,26.1
2022-07-26T06:18:37.787Z,26.1
2022-07-26T06:23:10.324Z,26.1
2022-07-26T06:26:13.765Z,26.1
2022-07-26T06:27:36.941Z,26.5
2022-07-26T06:32:07.091Z,26.5
2022-07-26T06:33:37.727Z,26.7
2022-07-26T06:36:37.210Z,26.7
2022-07-26T06:39:37.010Z,26.8
2022-07-26T06:40:39.580Z,26.8
2022-07-26T06:42:37.222Z,26.9
2022-07-26T06:43:29.085Z,26.9
2022-07-26T06:45:39.453Z,26.9
2022-07-26T06:47:09.125Z,26.9
2022-07-26T06:48:18.387Z,27.1
2022-07-26T06:48:57.387Z,27.1
2022-07-26T06:51:37.024Z,27.1
2022-07-26T06:52:23.722Z,27.2
2022-07-26T06:54:47.508Z,27.2
2022-07-26T06:57:51.055Z,27.3
2022-07-26T07:03:37.462Z,27.5
2022-07-26T07:06:38.555Z,27.5
2022-07-26T07:08:51.302Z,27.6
2022-07-26T07:09:39.097Z,27.6
2022-07-26T07:11:23.178Z,27.6
2022-07-26T07:12:42.490Z,27.7
2022-07-26T07:15:37.646Z,27.7
2022-07-26T07:18:37.741Z,28
2022-07-26T07:21:38.547Z,28
2022-07-26T07:24:38.293Z,28.3
2022-07-26T07:26:09.886Z,28.3
2022-07-26T07:27:38.107Z,28.4
2022-07-26T07:31:09.339Z,28.4
2022-07-26T07:31:50.353Z,28.4
2022-07-26T07:32:57.313Z,28.4
2022-07-26T07:33:54.420Z,28.6
2022-07-26T07:36:37.229Z,28.6
2022-07-26T07:39:41.744Z,28.8
2022-07-26T07:44:23.746Z,29
2022-07-26T07:45:36.867Z,29
2022-07-26T07:48:37.435Z,29
2022-07-26T07:49:55.746Z,29
2022-07-26T07:54:37.179Z,29.6
2022-07-26T07:56:39.486Z,29.6
2022-07-26T07:57:36.917Z,29.6
2022-07-26T08:00:42.253Z,29.6
2022-07-26T08:03:39.918Z,30.1
2022-07-26T08:06:18.551Z,30.1
2022-07-26T08:09:43.683Z,30.1
2022-07-26T08:12:37.216Z,30.1
2022-07-26T08:15:40.344Z,30.1
2022-07-26T08:18:58.606Z,30.1
2022-07-26T08:21:37.132Z,30.1
2022-07-26T08:23:39.721Z,30.1
2022-07-26T08:24:13.068Z,30.1
2022-07-26T08:28:03.753Z,30.1
2022-07-26T08:29:00.185Z,30.1
2022-07-26T08:32:58.049Z,30.1
2022-07-26T08:33:47.270Z,31.2
2022-07-26T08:37:17.677Z,31.2
2022-07-26T08:38:12.634Z,31.2
2022-07-26T08:39:37.212Z,31.2
2022-07-26T08:42:38.140Z,31.2
2022-07-26T08:45:37.574Z,31.2
2022-07-26T08:48:39.367Z,31.5
2022-07-26T08:51:29.003Z,31.5
2022-07-26T08:54:20.629Z,31.5
2022-07-26T08:57:27.205Z,31.5
2022-07-26T09:00:24.440Z,31.7
2022-07-26T09:03:38.452Z,31.7
2022-07-26T09:06:37.060Z,31.7
2022-07-26T09:09:37.459Z,31.9
2022-07-26T09:11:32.382Z,31.9
2022-07-26T09:12:42.831Z,32.1
2022-07-26T09:15:37.721Z,32.1
2022-07-26T09:18:11.026Z,32.4
2022-07-26T09:21:37.479Z,32.4
2022-07-26T09:23:16.562Z,32.5
2022-07-26T09:24:37.464Z,32.5
2022-07-26T09:27:36.923Z,32.4
2022-07-26T09:32:01.766Z,32.4
2022-07-26T09:33:37.023Z,32.4
2022-07-26T09:36:37.432Z,32.4
2022-07-26T09:39:35.302Z,32.8
2022-07-26T09:41:12.158Z,32.8
2022-07-26T09:42:36.846Z,32.8
2022-07-26T09:45:37.022Z,32.8
2022-07-26T09:49:12.516Z,32.8
2022-07-26T09:51:37.330Z,32.8
2022-07-26T09:53:05.708Z,32.8
2022-07-26T09:54:43.205Z,32.8
2022-07-26T09:57:31.845Z,32.8
2022-07-26T10:03:37.028Z,32.4
2022-07-26T10:04:28.678Z,32.4
2022-07-26T10:06:37.596Z,32.4
2022-07-26T10:07:31.226Z,32.4
2022-07-26T10:09:38.144Z,32.4
2022-07-26T10:12:37.325Z,32.4
2022-07-26T10:15:38.282Z,32.4
2022-07-26T10:16:42.974Z,32.4
2022-07-26T10:17:50.111Z,32.5
2022-07-26T10:18:39.420Z,32.5
2022-07-26T10:20:26.451Z,32.5
2022-07-26T10:21:38.319Z,32.5
2022-07-26T10:24:37.704Z,32.7
2022-07-26T10:27:08.674Z,32.8
2022-07-26T10:29:49.823Z,32.8
2022-07-26T10:33:37.882Z,32.9
2022-07-26T10:36:37.298Z,32.9
2022-07-26T10:39:30.412Z,32.9
2022-07-26T10:42:36.718Z,32.9
2022-07-26T10:45:36.859Z,32.9
2022-07-26T10:48:37.390Z,32.9
2022-07-26T10:49:33.368Z,32.9
2022-07-26T10:50:48.358Z,32.9
2022-07-26T10:51:36.800Z,33.3
2022-07-26T10:53:48.112Z,33.3
2022-07-26T10:54:37.187Z,33.3
2022-07-26T10:57:38.653Z,33.3
2022-07-26T11:03:39.561Z,33.5
2022-07-26T11:06:37.093Z,33.5
2022-07-26T11:07:31.112Z,33.5
2022-07-26T11:08:32.917Z,33.5
2022-07-26T11:15:37.565Z,33.5
2022-07-26T11:24:37.078Z,33.5
2022-07-26T11:27:36.935Z,33.5
2022-07-26T11:32:49.458Z,33.5
2022-07-26T11:33:36.980Z,33.5
2022-07-26T11:36:37.134Z,33.5
2022-07-26T11:39:36.950Z,33.4
2022-07-26T11:42:37.599Z,33.3
2022-07-26T11:45:21.929Z,33.3
2022-07-26T11:48:37.317Z,33.4
2022-07-26T11:51:36.837Z,33.4
2022-07-26T11:54:37.209Z,33.5
2022-07-26T11:57:27.889Z,33.4
2022-07-26T11:59:20.384Z,33.4
2022-07-26T12:01:12.018Z,33.4
2022-07-26T12:03:39.358Z,33.6
2022-07-26T12:06:37.302Z,33.6
2022-07-26T12:07:24.698Z,33.6
2022-07-26T12:09:38.292Z,33.9
2022-07-26T12:10:28.246Z,33.9
2022-07-26T12:11:08.713Z,33.9
2022-07-26T12:12:37.454Z,34
2022-07-26T12:13:12.447Z,34
2022-07-26T12:15:37.113Z,34
2022-07-26T12:18:37.630Z,34.1
2022-07-26T12:20:18.342Z,34.1
2022-07-26T12:21:37.648Z,34.1
2022-07-26T12:24:37.596Z,34.6
2022-07-26T12:25:09.634Z,34.6
2022-07-26T12:27:37.149Z,34.8
2022-07-26T12:28:25.306Z,34.8
2022-07-26T12:33:37.455Z,34.4
2022-07-26T12:36:37.056Z,34.4
2022-07-26T12:39:37.695Z,34.3
2022-07-26T12:42:36.643Z,34.6
2022-07-26T12:45:37.179Z,34.6
2022-07-26T12:48:37.697Z,34.5
2022-07-26T12:49:30.351Z,34.5
2022-07-26T12:52:54.745Z,34.5
2022-07-26T12:54:37.017Z,34.5
2022-07-26T12:56:52.200Z,34.5
2022-07-26T12:57:41.539Z,34.1
2022-07-26T12:59:04.006Z,34.1
2022-07-26T13:03:37.509Z,34.1
2022-07-26T13:06:37.001Z,34.1
2022-07-26T13:07:57.765Z,34.3
2022-07-26T13:09:37.173Z,34.3
2022-07-26T13:12:37.474Z,34.3
2022-07-26T13:15:38.579Z,34.3
2022-07-26T13:18:38.102Z,34.3
2022-07-26T13:19:29.378Z,34.3
2022-07-26T13:21:38.908Z,34.3
2022-07-26T13:24:39.041Z,34.3
2022-07-26T13:27:45.327Z,34.8
2022-07-26T13:34:00.875Z,34.8
2022-07-26T13:34:56.205Z,34.8
2022-07-26T13:36:37.421Z,34.8
2022-07-26T13:37:20.993Z,34.6
2022-07-26T13:39:38.092Z,34.6
2022-07-26T13:42:37.638Z,34.8
2022-07-26T13:43:40.217Z,34.8
2022-07-26T13:45:37.984Z,34.8
2022-07-26T13:48:37.250Z,34.4
2022-07-26T13:51:37.305Z,34.4
2022-07-26T13:54:38.049Z,34.3
2022-07-26T13:56:33.441Z,34.3
2022-07-26T13:57:58.701Z,34.8
2022-07-26T14:02:21.049Z,34.8
2022-07-26T14:03:37.637Z,34.8
2022-07-26T14:06:37.198Z,34.8
2022-07-26T14:09:37.611Z,34.7
2022-07-26T14:12:36.973Z,34.7
2022-07-26T14:15:37.646Z,34.7
2022-07-26T14:18:38.823Z,34.5
2022-07-26T14:22:00.907Z,34.5
2022-07-26T14:22:01.002Z,34.5
2022-07-26T14:24:13.792Z,34.7
2022-07-26T14:27:19.803Z,34.8
2022-07-26T14:30:30.717Z,34.8
2022-07-26T14:33:37.147Z,34.9
2022-07-26T14:36:36.654Z,34.9
2022-07-26T14:38:40.731Z,34.9
2022-07-26T14:39:47.021Z,34.9
2022-07-26T14:42:08.052Z,34.9
2022-07-26T14:45:10.601Z,34.9
2022-07-26T14:48:55.659Z,34.8
2022-07-26T14:51:37.739Z,34.8
2022-07-26T14:53:42.882Z,34.8
2022-07-26T14:54:36.946Z,34.8
2022-07-26T14:57:40.758Z,34.8
2022-07-26T14:59:12.749Z,34.8
2022-07-26T15:02:20.641Z,34.8
2022-07-26T15:02:59.888Z,34.8
2022-07-26T15:06:41.988Z,34.7
2022-07-26T15:09:37.461Z,34.7
2022-07-26T15:11:30.690Z,34.7
2022-07-26T15:12:37.322Z,34.7
2022-07-26T15:18:29.499Z,34.7
2022-07-26T15:21:37.894Z,34.7
2022-07-26T15:22:07.986Z,34.7
2022-07-26T15:24:40.650Z,34.4
2022-07-26T15:27:38.468Z,34.5
2022-07-26T15:30:42.041Z,34.5
2022-07-26T15:33:39.042Z,34.5
2022-07-26T15:34:11.060Z,34.5
2022-07-26T15:36:37.545Z,34.6
2022-07-26T15:39:37.029Z,34.4
2022-07-26T15:42:44.232Z,34.3
2022-07-26T15:45:38.005Z,34.3
2022-07-26T15:48:37.413Z,34.3
2022-07-26T15:51:37.104Z,34.3
2022-07-26T15:54:37.740Z,34.3
2022-07-26T15:57:37.650Z,34.1
2022-07-26T16:03:39.740Z,34.1
2022-07-26T16:06:11.314Z,34.1
2022-07-26T16:06:53.002Z,34.1
2022-07-26T16:21:38.480Z,34.1
2022-07-26T16:24:37.139Z,33.2
2022-07-26T16:26:42.770Z,33.2
2022-07-26T16:27:36.837Z,33.2
2022-07-26T16:32:06.219Z,33.2
2022-07-26T16:33:47.001Z,33.1
2022-07-26T16:36:36.125Z,33.1
2022-07-26T16:38:32.547Z,33
2022-07-26T16:39:36.854Z,33
2022-07-26T16:42:32.375Z,32.8
2022-07-26T16:45:37.644Z,32.8
2022-07-26T16:46:45.339Z,32.8
2022-07-26T16:48:37.550Z,32.7
2022-07-26T16:49:42.831Z,32.7
2022-07-26T16:51:36.054Z,32.7
2022-07-26T16:54:38.050Z,32.6
2022-07-26T16:57:28.809Z,32.5
2022-07-26T17:00:00.999Z,32.5
2022-07-26T17:00:48.345Z,32.5
2022-07-26T17:03:37.181Z,32.5
2022-07-26T17:10:02.105Z,32.5
2022-07-26T17:12:37.586Z,32.1
2022-07-26T17:15:36.980Z,32.1
2022-07-26T17:21:37.866Z,31.9
2022-07-26T17:24:07.860Z,31.8
2022-07-26T17:24:37.447Z,31.8
2022-07-26T17:25:32.323Z,31.8
2022-07-26T17:27:37.877Z,31.6
2022-07-26T17:28:33.008Z,31.6
2022-07-26T17:33:37.453Z,31.4
2022-07-26T17:34:31.991Z,31.4
2022-07-26T17:36:37.779Z,31.4
2022-07-26T17:38:37.586Z,31.2
2022-07-26T17:39:54.496Z,31.2
2022-07-26T17:42:03.095Z,31.2
2022-07-26T17:42:37.323Z,31.1
2022-07-26T17:45:09.322Z,31.1
2022-07-26T17:48:37.825Z,30.8
2022-07-26T17:49:43.094Z,30.8
2022-07-26T17:51:37.029Z,30.8
2022-07-26T17:53:09.662Z,30.7
2022-07-26T17:53:42.175Z,30.7
2022-07-26T17:54:37.219Z,30.7
2022-07-26T17:56:38.288Z,30.7
2022-07-26T17:57:38.970Z,30.6
2022-07-26T18:00:48.143Z,30.6
2022-07-26T18:03:37.354Z,30.5
2022-07-26T18:06:37.559Z,30.5
2022-07-26T18:09:37.795Z,30.4
2022-07-26T18:12:12.259Z,30.2
2022-07-26T18:15:38.575Z,30.2
2022-07-26T18:18:37.667Z,30.2
2022-07-26T18:19:36.294Z,30.2
2022-07-26T18:20:10.422Z,30.2
2022-07-26T18:21:07.942Z,30.2
2022-07-26T18:24:21.657Z,30
2022-07-26T18:27:36.873Z,30
2022-07-26T18:28:07.870Z,30
2022-07-26T18:33:37.439Z,29.9
2022-07-26T18:36:37.200Z,29.9
2022-07-26T18:39:15.497Z,29.8
2022-07-26T18:40:24.844Z,29.8
2022-07-26T18:43:39.170Z,29.7
2022-07-26T18:45:02.442Z,29.7
2022-07-26T18:45:38.144Z,29.7
2022-07-26T18:48:48.821Z,29.6
2022-07-26T18:51:40.468Z,29.6
2022-07-26T18:54:37.325Z,29.5
2022-07-26T18:55:25.752Z,29.5
2022-07-26T18:57:38.638Z,29.4
2022-07-26T18:58:11.448Z,29.4
2022-07-26T19:02:13.546Z,29.4
2022-07-26T19:03:27.089Z,29.3
2022-07-26T19:06:38.050Z,29.3
2022-07-26T19:09:38.535Z,29.3
2022-07-26T19:12:36.918Z,29.2
2022-07-26T19:13:40.979Z,29.2
2022-07-26T19:15:37.730Z,29.2
2022-07-26T19:18:17.503Z,29.1
2022-07-26T19:18:57.747Z,29.1
2022-07-26T19:21:38.277Z,29.1
2022-07-26T19:25:01.239Z,29.1
2022-07-26T19:26:25.554Z,29.1
2022-07-26T19:36:37.096Z,29.1
2022-07-26T19:43:04.771Z,28.9
2022-07-26T19:47:02.157Z,28.9
2022-07-26T20:06:37.343Z,28.9
2022-07-26T20:09:37.513Z,28.5
2022-07-26T20:11:27.215Z,28.5
2022-07-26T20:12:36.928Z,28.5
2022-07-26T20:15:37.165Z,28.5
2022-07-26T20:17:28.870Z,28.5
2022-07-26T20:18:37.924Z,28.5
2022-07-26T20:21:38.438Z,28.5
2022-07-26T20:24:37.483Z,28.5
2022-07-26T20:27:38.612Z,28.5
2022-07-26T20:30:06.447Z,28.5
2022-07-26T20:31:04.073Z,28.5
2022-07-26T20:33:37.600Z,28.5
2022-07-26T20:36:25.100Z,28.5
2022-07-26T20:37:40.154Z,28.5
2022-07-26T20:44:29.117Z,28.5
2022-07-26T20:47:26.203Z,28.5
2022-07-26T20:51:38.908Z,28.5
2022-07-26T20:54:38.748Z,28.5
2022-07-26T20:57:04.959Z,28.5
2022-07-26T20:57:38.436Z,28.5
2022-07-26T20:59:36.333Z,28.5
2022-07-26T21:03:37.673Z,28.5
2022-07-26T21:06:37.208Z,28.5
2022-07-26T21:08:04.115Z,28.5
2022-07-26T21:10:45.150Z,28.5
2022-07-26T21:13:53.670Z,28.5
2022-07-26T21:15:37.087Z,28.5
2022-07-26T21:18:37.126Z,28.5
2022-07-26T21:24:11.934Z,28.5
2022-07-26T21:33:37.787Z,28.5
2022-07-26T21:36:37.290Z,28.5
2022-07-26T21:37:25.229Z,28.4
2022-07-26T21:39:38.130Z,28.4
2022-07-26T21:42:02.865Z,28.4
2022-07-26T21:42:37.454Z,28.4
2022-07-26T21:45:37.889Z,28.4
2022-07-26T21:47:30.395Z,28.4
2022-07-26T21:48:37.472Z,28.4
2022-07-26T21:50:50.520Z,28.4
2022-07-26T21:51:37.360Z,28.4
2022-07-26T21:53:22.401Z,28.2
2022-07-26T21:54:37.741Z,28.2
2022-07-26T21:56:07.565Z,28.2
2022-07-26T21:57:37.287Z,28
2022-07-26T22:00:32.632Z,28
2022-07-26T22:03:37.724Z,28
2022-07-26T22:05:48.894Z,28
2022-07-26T22:06:37.104Z,28
2022-07-26T22:09:39.096Z,27.7
2022-07-26T22:10:25.177Z,27.7
2022-07-26T22:12:37.294Z,27.6
2022-07-26T22:13:25.626Z,27.6
2022-07-26T22:15:37.755Z,27.6
2022-07-26T22:18:37.311Z,27.4
2022-07-26T22:20:13.810Z,27.4
2022-07-26T22:21:38.979Z,27.4
2022-07-26T22:24:37.275Z,27.3
2022-07-26T22:26:19.305Z,27.3
2022-07-26T22:27:37.326Z,27.3
2022-07-26T22:29:40.746Z,27.3
2022-07-26T22:31:27.418Z,27.3
2022-07-26T22:33:38.830Z,27.1
2022-07-26T22:36:46.083Z,27.1
2022-07-26T22:42:37.058Z,27
2022-07-26T22:45:32.427Z,27
2022-07-26T22:48:48.115Z,26.8
2022-07-26T22:51:37.499Z,26.8
2022-07-26T22:54:37.696Z,26.7
2022-07-26T22:57:38.644Z,26.7
2022-07-26T23:01:24.660Z,26.7
2022-07-26T23:03:21.480Z,26.6
2022-07-26T23:03:49.556Z,26.6
2022-07-26T23:06:39.193Z,26.6
2022-07-26T23:09:39.057Z,26.6
2022-07-26T23:10:09.094Z,26.6
2022-07-26T23:12:37.645Z,26.5
2022-07-26T23:13:59.683Z,26.5
2022-07-26T23:15:37.022Z,26.5
2022-07-26T23:16:47.227Z,26.5
2022-07-26T23:17:41.443Z,26.5
2022-07-26T23:18:38.043Z,26.5
2022-07-26T23:20:09.610Z,26.5
2022-07-26T23:21:38.658Z,26.5
2022-07-26T23:23:16.651Z,26.4
2022-07-26T23:23:58.389Z,26.4
2022-07-26T23:24:36.789Z,26.4
2022-07-26T23:27:37.128Z,26.4
2022-07-26T23:30:14.638Z,26.4
2022-07-26T23:32:18.723Z,26.4
2022-07-26T23:33:55.139Z,26.3
2022-07-26T23:36:37.826Z,26.3
2022-07-26T23:38:32.612Z,26.3
2022-07-26T23:39:37.151Z,26.3
2022-07-26T23:41:15.058Z,26.3
2022-07-26T23:42:37.263Z,26.1
2022-07-26T23:45:37.035Z,26.1
2022-07-26T23:47:14.903Z,26
2022-07-26T23:48:36.772Z,26
2022-07-26T23:51:37.448Z,26
2022-07-26T23:54:37.596Z,26
2022-07-26T23:55:16.753Z,26
2022-07-26T23:57:38.091Z,26
2022-07-26T23:58:41.287Z,26
2022-07-26T23:59:30.195Z,26
